sensor_id;sensor_type;location;lat;lon;timestamp;P1;durP1;ratioP1;P2;durP2;ratioP2
38208;SDS011;24016;52.102;11.584;2023-08-07T00:00:21;18.50;;;9.88;;
38208;SDS011;24016;52.102;11.584;2023-08-07T00:02:46;18.27;;;10.85;;
38208;SDS011;24016;52.102;11.584;2023-08-07T00:05:12;13.88;;;10.43;;
38208;SDS011;24016;52.102;11.584;2023-08-07T00:07:37;13.25;;;9.35;;
38208;SDS011;24016;52.102;11.584;2023-08-07T00:10:03;14.75;;;10.07;;
38208;SDS011;24016;52.102;11.584;2023-08-07T00:12:29;15.48;;;9.93;;
38208;SDS011;24016;52.102;11.584;2023-08-07T00:14:55;13.82;;;9.13;;
38208;SDS011;24016;52.102;11.584;2023-08-07T00:17:20;16.63;;;10.27;;
38208;SDS011;24016;52.102;11.584;2023-08-07T00:19:46;16.02;;;10.52;;
38208;SDS011;24016;52.102;11.584;2023-08-07T00:22:12;14.65;;;9.88;;
38208;SDS011;24016;52.102;11.584;2023-08-07T00:24:37;14.32;;;10.57;;
38208;SDS011;24016;52.102;11.584;2023-08-07T00:27:03;14.65;;;10.02;;
38208;SDS011;24016;52.102;11.584;2023-08-07T00:29:28;20.08;;;10.77;;
38208;SDS011;24016;52.102;11.584;2023-08-07T00:31:54;16.05;;;10.23;;
38208;SDS011;24016;52.102;11.584;2023-08-07T00:34:19;13.68;;;9.68;;
38208;SDS011;24016;52.102;11.584;2023-08-07T00:36:45;13.85;;;10.27;;
38208;SDS011;24016;52.102;11.584;2023-08-07T00:39:11;18.75;;;9.68;;
38208;SDS011;24016;52.102;11.584;2023-08-07T00:41:36;15.43;;;9.30;;
38208;SDS011;24016;52.102;11.584;2023-08-07T00:44:02;14.70;;;9.80;;
38208;SDS011;24016;52.102;11.584;2023-08-07T00:46:28;13.98;;;9.43;;
38208;SDS011;24016;52.102;11.584;2023-08-07T00:48:54;12.98;;;9.88;;
38208;SDS011;24016;52.102;11.584;2023-08-07T00:51:21;12.85;;;9.48;;
38208;SDS011;24016;52.102;11.584;2023-08-07T00:53:48;14.43;;;9.55;;
38208;SDS011;24016;52.102;11.584;2023-08-07T00:56:14;14.15;;;9.80;;
38208;SDS011;24016;52.102;11.584;2023-08-07T00:58:40;12.32;;;8.80;;
38208;SDS011;24016;52.102;11.584;2023-08-07T01:01:06;14.88;;;9.35;;
38208;SDS011;24016;52.102;11.584;2023-08-07T01:03:32;13.13;;;8.63;;
38208;SDS011;24016;52.102;11.584;2023-08-07T01:05:58;11.27;;;8.75;;
38208;SDS011;24016;52.102;11.584;2023-08-07T01:08:24;12.07;;;8.88;;
38208;SDS011;24016;52.102;11.584;2023-08-07T01:13:40;15.68;;;9.25;;
38208;SDS011;24016;52.102;11.584;2023-08-07T01:16:42;11.73;;;9.25;;
38208;SDS011;24016;52.102;11.584;2023-08-07T01:19:22;11.80;;;8.75;;
38208;SDS011;24016;52.102;11.584;2023-08-07T01:21:50;14.40;;;9.07;;
38208;SDS011;24016;52.102;11.584;2023-08-07T01:24:28;14.13;;;9.70;;
38208;SDS011;24016;52.102;11.584;2023-08-07T01:26:54;16.77;;;9.18;;
38208;SDS011;24016;52.102;11.584;2023-08-07T01:29:33;13.48;;;9.13;;
38208;SDS011;24016;52.102;11.584;2023-08-07T01:32:08;14.63;;;8.68;;
38208;SDS011;24016;52.102;11.584;2023-08-07T01:34:36;10.88;;;8.32;;
38208;SDS011;24016;52.102;11.584;2023-08-07T01:37:04;10.63;;;8.20;;
38208;SDS011;24016;52.102;11.584;2023-08-07T01:39:32;13.13;;;9.27;;
38208;SDS011;24016;52.102;11.584;2023-08-07T01:42:00;12.93;;;8.70;;
38208;SDS011;24016;52.102;11.584;2023-08-07T01:44:27;11.55;;;7.90;;
38208;SDS011;24016;52.102;11.584;2023-08-07T01:46:53;10.63;;;8.35;;
38208;SDS011;24016;52.102;11.584;2023-08-07T01:49:18;15.70;;;8.82;;
38208;SDS011;24016;52.102;11.584;2023-08-07T01:51:44;13.38;;;8.98;;
38208;SDS011;24016;52.102;11.584;2023-08-07T01:54:09;11.73;;;9.18;;
38208;SDS011;24016;52.102;11.584;2023-08-07T01:56:35;15.25;;;9.13;;
38208;SDS011;24016;52.102;11.584;2023-08-07T01:59:01;12.02;;;8.80;;
38208;SDS011;24016;52.102;11.584;2023-08-07T02:01:26;11.55;;;8.68;;
38208;SDS011;24016;52.102;11.584;2023-08-07T02:03:52;11.85;;;8.57;;
38208;SDS011;24016;52.102;11.584;2023-08-07T02:06:18;12.93;;;9.40;;
38208;SDS011;24016;52.102;11.584;2023-08-07T02:08:43;13.32;;;8.85;;
38208;SDS011;24016;52.102;11.584;2023-08-07T02:11:09;12.05;;;8.38;;
38208;SDS011;24016;52.102;11.584;2023-08-07T02:13:34;11.25;;;9.35;;
38208;SDS011;24016;52.102;11.584;2023-08-07T02:16:00;11.55;;;9.05;;
38208;SDS011;24016;52.102;11.584;2023-08-07T02:18:25;9.70;;;8.10;;
38208;SDS011;24016;52.102;11.584;2023-08-07T02:20:51;9.35;;;8.20;;
38208;SDS011;24016;52.102;11.584;2023-08-07T02:23:16;16.40;;;8.65;;
38208;SDS011;24016;52.102;11.584;2023-08-07T02:25:42;9.32;;;7.38;;
38208;SDS011;24016;52.102;11.584;2023-08-07T02:28:10;10.77;;;7.63;;
38208;SDS011;24016;52.102;11.584;2023-08-07T02:30:35;9.45;;;7.97;;
38208;SDS011;24016;52.102;11.584;2023-08-07T02:33:01;10.15;;;7.90;;
38208;SDS011;24016;52.102;11.584;2023-08-07T02:35:27;11.70;;;8.00;;
38208;SDS011;24016;52.102;11.584;2023-08-07T02:37:52;11.43;;;7.65;;
38208;SDS011;24016;52.102;11.584;2023-08-07T02:40:18;10.23;;;8.25;;
38208;SDS011;24016;52.102;11.584;2023-08-07T02:42:44;10.45;;;8.00;;
38208;SDS011;24016;52.102;11.584;2023-08-07T02:45:09;10.75;;;8.15;;
38208;SDS011;24016;52.102;11.584;2023-08-07T02:47:35;10.70;;;8.32;;
38208;SDS011;24016;52.102;11.584;2023-08-07T02:50:01;11.45;;;7.68;;
38208;SDS011;24016;52.102;11.584;2023-08-07T02:52:26;9.82;;;7.85;;
38208;SDS011;24016;52.102;11.584;2023-08-07T02:54:52;12.27;;;7.78;;
38208;SDS011;24016;52.102;11.584;2023-08-07T02:57:18;8.73;;;6.50;;
38208;SDS011;24016;52.102;11.584;2023-08-07T02:59:44;7.57;;;5.40;;
38208;SDS011;24016;52.102;11.584;2023-08-07T03:02:09;6.45;;;5.68;;
38208;SDS011;24016;52.102;11.584;2023-08-07T03:04:35;6.18;;;4.68;;
38208;SDS011;24016;52.102;11.584;2023-08-07T03:07:01;5.65;;;4.25;;
38208;SDS011;24016;52.102;11.584;2023-08-07T03:09:26;7.00;;;4.25;;
38208;SDS011;24016;52.102;11.584;2023-08-07T03:11:52;5.65;;;4.15;;
38208;SDS011;24016;52.102;11.584;2023-08-07T03:14:17;7.38;;;3.72;;
38208;SDS011;24016;52.102;11.584;2023-08-07T03:16:44;5.32;;;4.15;;
38208;SDS011;24016;52.102;11.584;2023-08-07T03:19:10;8.13;;;4.10;;
38208;SDS011;24016;52.102;11.584;2023-08-07T03:21:36;5.60;;;4.70;;
38208;SDS011;24016;52.102;11.584;2023-08-07T03:24:01;5.57;;;4.53;;
38208;SDS011;24016;52.102;11.584;2023-08-07T03:26:27;7.05;;;5.00;;
38208;SDS011;24016;52.102;11.584;2023-08-07T03:28:52;10.80;;;4.90;;
38208;SDS011;24016;52.102;11.584;2023-08-07T03:31:18;8.25;;;5.50;;
38208;SDS011;24016;52.102;11.584;2023-08-07T03:33:43;6.40;;;5.60;;
38208;SDS011;24016;52.102;11.584;2023-08-07T03:36:09;8.73;;;5.50;;
38208;SDS011;24016;52.102;11.584;2023-08-07T03:38:35;6.53;;;5.68;;
38208;SDS011;24016;52.102;11.584;2023-08-07T03:41:00;6.43;;;5.40;;
38208;SDS011;24016;52.102;11.584;2023-08-07T03:43:26;6.22;;;5.38;;
38208;SDS011;24016;52.102;11.584;2023-08-07T03:45:55;10.02;;;5.65;;
38208;SDS011;24016;52.102;11.584;2023-08-07T03:48:23;6.28;;;5.68;;
38208;SDS011;24016;52.102;11.584;2023-08-07T03:50:49;7.00;;;5.60;;
38208;SDS011;24016;52.102;11.584;2023-08-07T03:53:14;9.45;;;5.90;;
38208;SDS011;24016;52.102;11.584;2023-08-07T03:55:41;8.23;;;5.40;;
38208;SDS011;24016;52.102;11.584;2023-08-07T03:58:07;6.43;;;5.65;;
38208;SDS011;24016;52.102;11.584;2023-08-07T04:00:33;7.72;;;5.32;;
38208;SDS011;24016;52.102;11.584;2023-08-07T04:02:58;6.80;;;4.95;;
38208;SDS011;24016;52.102;11.584;2023-08-07T04:05:24;6.75;;;5.22;;
38208;SDS011;24016;52.102;11.584;2023-08-07T04:07:50;6.75;;;4.88;;
38208;SDS011;24016;52.102;11.584;2023-08-07T04:10:15;9.05;;;5.60;;
38208;SDS011;24016;52.102;11.584;2023-08-07T04:12:41;7.38;;;5.35;;
38208;SDS011;24016;52.102;11.584;2023-08-07T04:15:07;6.50;;;5.20;;
38208;SDS011;24016;52.102;11.584;2023-08-07T04:17:33;6.32;;;5.45;;
38208;SDS011;24016;52.102;11.584;2023-08-07T04:19:59;8.35;;;5.03;;
38208;SDS011;24016;52.102;11.584;2023-08-07T04:22:25;6.72;;;5.22;;
38208;SDS011;24016;52.102;11.584;2023-08-07T04:24:50;8.85;;;5.70;;
38208;SDS011;24016;52.102;11.584;2023-08-07T04:27:16;9.35;;;5.93;;
38208;SDS011;24016;52.102;11.584;2023-08-07T04:29:41;9.73;;;5.38;;
38208;SDS011;24016;52.102;11.584;2023-08-07T04:32:07;7.80;;;5.70;;
38208;SDS011;24016;52.102;11.584;2023-08-07T04:34:32;6.63;;;5.68;;
38208;SDS011;24016;52.102;11.584;2023-08-07T04:37:00;7.38;;;5.93;;
38208;SDS011;24016;52.102;11.584;2023-08-07T04:39:25;6.50;;;5.70;;
38208;SDS011;24016;52.102;11.584;2023-08-07T04:41:51;7.63;;;5.63;;
38208;SDS011;24016;52.102;11.584;2023-08-07T04:44:17;6.57;;;5.38;;
38208;SDS011;24016;52.102;11.584;2023-08-07T04:46:42;8.52;;;5.40;;
38208;SDS011;24016;52.102;11.584;2023-08-07T04:49:08;7.35;;;5.78;;
38208;SDS011;24016;52.102;11.584;2023-08-07T04:51:34;6.97;;;5.65;;
38208;SDS011;24016;52.102;11.584;2023-08-07T04:53:59;6.63;;;5.70;;
38208;SDS011;24016;52.102;11.584;2023-08-07T04:56:25;10.32;;;5.60;;
38208;SDS011;24016;52.102;11.584;2023-08-07T04:58:50;6.97;;;5.25;;
38208;SDS011;24016;52.102;11.584;2023-08-07T05:01:16;6.93;;;5.60;;
38208;SDS011;24016;52.102;11.584;2023-08-07T05:03:41;6.57;;;5.85;;
38208;SDS011;24016;52.102;11.584;2023-08-07T05:06:07;7.97;;;5.30;;
38208;SDS011;24016;52.102;11.584;2023-08-07T05:08:33;6.20;;;4.97;;
38208;SDS011;24016;52.102;11.584;2023-08-07T05:10:58;8.70;;;5.45;;
38208;SDS011;24016;52.102;11.584;2023-08-07T05:13:24;7.53;;;5.97;;
38208;SDS011;24016;52.102;11.584;2023-08-07T05:15:49;7.78;;;5.50;;
38208;SDS011;24016;52.102;11.584;2023-08-07T05:18:15;11.18;;;5.60;;
38208;SDS011;24016;52.102;11.584;2023-08-07T05:20:41;7.93;;;5.50;;
38208;SDS011;24016;52.102;11.584;2023-08-07T05:23:07;7.78;;;5.03;;
38208;SDS011;24016;52.102;11.584;2023-08-07T05:25:33;7.10;;;5.30;;
38208;SDS011;24016;52.102;11.584;2023-08-07T05:27:58;5.68;;;4.90;;
38208;SDS011;24016;52.102;11.584;2023-08-07T05:30:24;7.13;;;4.68;;
38208;SDS011;24016;52.102;11.584;2023-08-07T05:32:50;6.95;;;4.95;;
38208;SDS011;24016;52.102;11.584;2023-08-07T05:35:15;6.20;;;4.72;;
38208;SDS011;24016;52.102;11.584;2023-08-07T05:37:41;6.20;;;4.78;;
38208;SDS011;24016;52.102;11.584;2023-08-07T05:40:06;6.57;;;4.57;;
38208;SDS011;24016;52.102;11.584;2023-08-07T05:42:32;5.70;;;3.92;;
38208;SDS011;24016;52.102;11.584;2023-08-07T05:44:59;6.05;;;3.95;;
38208;SDS011;24016;52.102;11.584;2023-08-07T05:47:25;5.13;;;3.85;;
38208;SDS011;24016;52.102;11.584;2023-08-07T05:49:50;5.13;;;3.63;;
38208;SDS011;24016;52.102;11.584;2023-08-07T05:52:17;5.65;;;3.70;;
38208;SDS011;24016;52.102;11.584;2023-08-07T05:54:42;8.98;;;3.42;;
38208;SDS011;24016;52.102;11.584;2023-08-07T05:57:08;5.35;;;3.05;;
38208;SDS011;24016;52.102;11.584;2023-08-07T05:59:34;5.68;;;3.30;;
38208;SDS011;24016;52.102;11.584;2023-08-07T06:02:00;5.90;;;3.15;;
38208;SDS011;24016;52.102;11.584;2023-08-07T06:04:25;5.20;;;3.55;;
38208;SDS011;24016;52.102;11.584;2023-08-07T06:06:51;6.93;;;3.25;;
38208;SDS011;24016;52.102;11.584;2023-08-07T06:09:16;5.45;;;3.13;;
38208;SDS011;24016;52.102;11.584;2023-08-07T06:11:43;5.65;;;3.00;;
38208;SDS011;24016;52.102;11.584;2023-08-07T06:14:09;5.53;;;3.42;;
38208;SDS011;24016;52.102;11.584;2023-08-07T06:16:34;5.20;;;2.88;;
38208;SDS011;24016;52.102;11.584;2023-08-07T06:19:00;5.03;;;2.80;;
38208;SDS011;24016;52.102;11.584;2023-08-07T06:21:25;7.05;;;3.20;;
38208;SDS011;24016;52.102;11.584;2023-08-07T06:23:53;6.32;;;3.55;;
38208;SDS011;24016;52.102;11.584;2023-08-07T06:26:19;6.50;;;3.45;;
38208;SDS011;24016;52.102;11.584;2023-08-07T06:28:44;4.47;;;3.17;;
38208;SDS011;24016;52.102;11.584;2023-08-07T06:31:10;5.03;;;3.08;;
38208;SDS011;24016;52.102;11.584;2023-08-07T06:33:36;6.03;;;2.90;;
38208;SDS011;24016;52.102;11.584;2023-08-07T06:36:04;5.55;;;2.70;;
38208;SDS011;24016;52.102;11.584;2023-08-07T06:38:30;4.72;;;2.50;;
38208;SDS011;24016;52.102;11.584;2023-08-07T06:40:56;4.32;;;2.70;;
38208;SDS011;24016;52.102;11.584;2023-08-07T06:43:22;3.95;;;2.38;;
38208;SDS011;24016;52.102;11.584;2023-08-07T06:45:51;3.25;;;2.10;;
38208;SDS011;24016;52.102;11.584;2023-08-07T06:48:17;3.28;;;2.15;;
38208;SDS011;24016;52.102;11.584;2023-08-07T06:50:43;3.22;;;2.17;;
38208;SDS011;24016;52.102;11.584;2023-08-07T06:53:09;4.43;;;2.35;;
38208;SDS011;24016;52.102;11.584;2023-08-07T06:55:35;5.28;;;2.70;;
38208;SDS011;24016;52.102;11.584;2023-08-07T06:58:00;4.55;;;2.70;;
38208;SDS011;24016;52.102;11.584;2023-08-07T07:00:26;4.82;;;2.90;;
38208;SDS011;24016;52.102;11.584;2023-08-07T07:02:52;5.13;;;3.17;;
38208;SDS011;24016;52.102;11.584;2023-08-07T07:05:18;4.63;;;2.47;;
38208;SDS011;24016;52.102;11.584;2023-08-07T07:07:43;3.97;;;2.60;;
38208;SDS011;24016;52.102;11.584;2023-08-07T07:10:09;5.60;;;2.58;;
38208;SDS011;24016;52.102;11.584;2023-08-07T07:12:35;4.18;;;2.55;;
38208;SDS011;24016;52.102;11.584;2023-08-07T07:15:01;5.93;;;2.88;;
38208;SDS011;24016;52.102;11.584;2023-08-07T07:17:27;3.97;;;2.78;;
38208;SDS011;24016;52.102;11.584;2023-08-07T07:19:53;4.78;;;2.60;;
38208;SDS011;24016;52.102;11.584;2023-08-07T07:22:19;5.32;;;2.63;;
38208;SDS011;24016;52.102;11.584;2023-08-07T07:24:44;7.05;;;3.20;;
38208;SDS011;24016;52.102;11.584;2023-08-07T07:27:10;6.55;;;2.85;;
38208;SDS011;24016;52.102;11.584;2023-08-07T07:29:35;3.90;;;2.67;;
38208;SDS011;24016;52.102;11.584;2023-08-07T07:32:01;5.07;;;2.53;;
38208;SDS011;24016;52.102;11.584;2023-08-07T07:34:27;4.93;;;2.90;;
38208;SDS011;24016;52.102;11.584;2023-08-07T07:36:53;4.50;;;2.80;;
38208;SDS011;24016;52.102;11.584;2023-08-07T07:39:19;3.63;;;2.53;;
38208;SDS011;24016;52.102;11.584;2023-08-07T07:41:45;4.28;;;2.13;;
38208;SDS011;24016;52.102;11.584;2023-08-07T07:44:10;4.60;;;2.58;;
38208;SDS011;24016;52.102;11.584;2023-08-07T07:46:36;5.05;;;2.05;;
38208;SDS011;24016;52.102;11.584;2023-08-07T07:49:01;4.40;;;2.20;;
38208;SDS011;24016;52.102;11.584;2023-08-07T07:51:29;3.78;;;2.20;;
38208;SDS011;24016;52.102;11.584;2023-08-07T07:53:54;3.53;;;2.42;;
38208;SDS011;24016;52.102;11.584;2023-08-07T07:56:20;3.00;;;2.10;;
38208;SDS011;24016;52.102;11.584;2023-08-07T07:58:45;2.50;;;1.90;;
38208;SDS011;24016;52.102;11.584;2023-08-07T08:01:11;3.92;;;2.10;;
38208;SDS011;24016;52.102;11.584;2023-08-07T08:03:36;2.70;;;1.88;;
38208;SDS011;24016;52.102;11.584;2023-08-07T08:06:02;2.30;;;1.50;;
38208;SDS011;24016;52.102;11.584;2023-08-07T08:08:28;2.78;;;1.98;;
38208;SDS011;24016;52.102;11.584;2023-08-07T08:10:54;2.50;;;1.50;;
38208;SDS011;24016;52.102;11.584;2023-08-07T08:13:19;2.85;;;1.70;;
38208;SDS011;24016;52.102;11.584;2023-08-07T08:15:45;3.30;;;1.70;;
38208;SDS011;24016;52.102;11.584;2023-08-07T08:18:10;3.15;;;1.58;;
38208;SDS011;24016;52.102;11.584;2023-08-07T08:20:37;2.83;;;1.40;;
38208;SDS011;24016;52.102;11.584;2023-08-07T08:23:03;1.92;;;1.50;;
38208;SDS011;24016;52.102;11.584;2023-08-07T08:25:29;2.30;;;1.63;;
38208;SDS011;24016;52.102;11.584;2023-08-07T08:27:55;1.65;;;1.30;;
38208;SDS011;24016;52.102;11.584;2023-08-07T08:30:21;2.72;;;1.60;;
38208;SDS011;24016;52.102;11.584;2023-08-07T08:32:46;4.20;;;1.70;;
38208;SDS011;24016;52.102;11.584;2023-08-07T08:35:12;2.80;;;1.50;;
38208;SDS011;24016;52.102;11.584;2023-08-07T08:37:38;3.70;;;1.30;;
38208;SDS011;24016;52.102;11.584;2023-08-07T08:40:04;2.08;;;1.30;;
38208;SDS011;24016;52.102;11.584;2023-08-07T08:42:31;4.10;;;1.70;;
38208;SDS011;24016;52.102;11.584;2023-08-07T08:44:57;3.90;;;1.60;;
38208;SDS011;24016;52.102;11.584;2023-08-07T08:47:27;2.60;;;1.50;;
38208;SDS011;24016;52.102;11.584;2023-08-07T08:52:32;2.75;;;1.52;;
38208;SDS011;24016;52.102;11.584;2023-08-07T08:55:00;4.15;;;1.90;;
38208;SDS011;24016;52.102;11.584;2023-08-07T08:57:26;4.55;;;1.98;;
38208;SDS011;24016;52.102;11.584;2023-08-07T08:59:53;3.35;;;1.85;;
38208;SDS011;24016;52.102;11.584;2023-08-07T09:02:18;4.43;;;1.70;;
38208;SDS011;24016;52.102;11.584;2023-08-07T09:04:44;5.32;;;2.10;;
38208;SDS011;24016;52.102;11.584;2023-08-07T09:07:10;5.15;;;2.00;;
38208;SDS011;24016;52.102;11.584;2023-08-07T09:09:38;3.58;;;1.77;;
38208;SDS011;24016;52.102;11.584;2023-08-07T09:12:05;4.78;;;2.00;;
38208;SDS011;24016;52.102;11.584;2023-08-07T09:14:41;3.05;;;1.98;;
38208;SDS011;24016;52.102;11.584;2023-08-07T09:17:08;2.35;;;1.63;;
38208;SDS011;24016;52.102;11.584;2023-08-07T09:19:34;2.40;;;1.60;;
38208;SDS011;24016;52.102;11.584;2023-08-07T09:21:59;3.42;;;1.50;;
38208;SDS011;24016;52.102;11.584;2023-08-07T09:24:25;2.97;;;1.63;;
38208;SDS011;24016;52.102;11.584;2023-08-07T09:26:51;2.63;;;1.60;;
38208;SDS011;24016;52.102;11.584;2023-08-07T09:29:18;2.90;;;1.40;;
38208;SDS011;24016;52.102;11.584;2023-08-07T09:31:45;3.25;;;1.50;;
38208;SDS011;24016;52.102;11.584;2023-08-07T09:34:11;2.80;;;1.30;;
38208;SDS011;24016;52.102;11.584;2023-08-07T09:36:38;2.33;;;1.30;;
38208;SDS011;24016;52.102;11.584;2023-08-07T09:39:05;2.15;;;1.25;;
38208;SDS011;24016;52.102;11.584;2023-08-07T09:41:31;3.13;;;1.30;;
38208;SDS011;24016;52.102;11.584;2023-08-07T09:43:57;3.28;;;1.67;;
38208;SDS011;24016;52.102;11.584;2023-08-07T09:46:24;2.15;;;1.33;;
38208;SDS011;24016;52.102;11.584;2023-08-07T09:48:51;2.50;;;1.38;;
38208;SDS011;24016;52.102;11.584;2023-08-07T09:51:17;2.92;;;1.42;;
38208;SDS011;24016;52.102;11.584;2023-08-07T09:53:42;4.35;;;1.40;;
38208;SDS011;24016;52.102;11.584;2023-08-07T09:56:08;2.28;;;1.35;;
38208;SDS011;24016;52.102;11.584;2023-08-07T09:58:34;1.55;;;1.15;;
38208;SDS011;24016;52.102;11.584;2023-08-07T10:01:03;2.55;;;1.00;;
38208;SDS011;24016;52.102;11.584;2023-08-07T10:03:34;1.25;;;1.10;;
38208;SDS011;24016;52.102;11.584;2023-08-07T10:06:00;2.53;;;1.27;;
38208;SDS011;24016;52.102;11.584;2023-08-07T10:08:26;3.05;;;1.52;;
38208;SDS011;24016;52.102;11.584;2023-08-07T10:10:53;4.78;;;1.50;;
38208;SDS011;24016;52.102;11.584;2023-08-07T10:13:18;4.97;;;1.33;;
38208;SDS011;24016;52.102;11.584;2023-08-07T10:15:44;4.30;;;1.30;;
38208;SDS011;24016;52.102;11.584;2023-08-07T10:18:11;2.97;;;1.38;;
38208;SDS011;24016;52.102;11.584;2023-08-07T10:20:36;3.05;;;1.17;;
38208;SDS011;24016;52.102;11.584;2023-08-07T10:23:07;3.90;;;1.30;;
38208;SDS011;24016;52.102;11.584;2023-08-07T10:25:37;6.57;;;1.65;;
38208;SDS011;24016;52.102;11.584;2023-08-07T10:28:08;3.47;;;1.30;;
38208;SDS011;24016;52.102;11.584;2023-08-07T10:30:37;2.65;;;1.05;;
38208;SDS011;24016;52.102;11.584;2023-08-07T10:33:04;2.70;;;1.15;;
38208;SDS011;24016;52.102;11.584;2023-08-07T10:35:33;3.15;;;1.30;;
38208;SDS011;24016;52.102;11.584;2023-08-07T10:38:04;4.15;;;1.20;;
38208;SDS011;24016;52.102;11.584;2023-08-07T10:40:32;2.53;;;1.20;;
38208;SDS011;24016;52.102;11.584;2023-08-07T10:42:59;8.70;;;1.42;;
38208;SDS011;24016;52.102;11.584;2023-08-07T10:45:36;4.88;;;1.27;;
38208;SDS011;24016;52.102;11.584;2023-08-07T10:50:33;2.72;;;1.50;;
38208;SDS011;24016;52.102;11.584;2023-08-07T10:53:03;2.08;;;1.17;;
38208;SDS011;24016;52.102;11.584;2023-08-07T10:55:44;5.75;;;1.50;;
38208;SDS011;24016;52.102;11.584;2023-08-07T10:58:30;3.05;;;1.58;;
38208;SDS011;24016;52.102;11.584;2023-08-07T11:03:52;2.90;;;1.40;;
38208;SDS011;24016;52.102;11.584;2023-08-07T11:06:21;3.08;;;1.42;;
38208;SDS011;24016;52.102;11.584;2023-08-07T11:08:51;2.20;;;1.10;;
38208;SDS011;24016;52.102;11.584;2023-08-07T11:11:17;1.70;;;1.00;;
38208;SDS011;24016;52.102;11.584;2023-08-07T11:13:43;3.60;;;1.30;;
38208;SDS011;24016;52.102;11.584;2023-08-07T11:16:08;3.80;;;1.60;;
38208;SDS011;24016;52.102;11.584;2023-08-07T11:18:34;7.35;;;1.63;;
38208;SDS011;24016;52.102;11.584;2023-08-07T11:21:06;4.70;;;1.60;;
38208;SDS011;24016;52.102;11.584;2023-08-07T11:23:33;4.35;;;1.55;;
38208;SDS011;24016;52.102;11.584;2023-08-07T11:25:58;5.03;;;1.83;;
38208;SDS011;24016;52.102;11.584;2023-08-07T11:28:24;5.53;;;2.08;;
38208;SDS011;24016;52.102;11.584;2023-08-07T11:30:53;4.28;;;1.70;;
38208;SDS011;24016;52.102;11.584;2023-08-07T11:33:20;4.32;;;1.48;;
38208;SDS011;24016;52.102;11.584;2023-08-07T11:35:50;5.53;;;1.50;;
38208;SDS011;24016;52.102;11.584;2023-08-07T11:38:32;4.18;;;1.63;;
38208;SDS011;24016;52.102;11.584;2023-08-07T11:41:02;5.13;;;1.75;;
38208;SDS011;24016;52.102;11.584;2023-08-07T11:43:30;6.00;;;1.75;;
38208;SDS011;24016;52.102;11.584;2023-08-07T11:45:57;5.68;;;1.50;;
38208;SDS011;24016;52.102;11.584;2023-08-07T11:48:24;4.38;;;1.60;;
38208;SDS011;24016;52.102;11.584;2023-08-07T11:50:52;4.03;;;1.63;;
38208;SDS011;24016;52.102;11.584;2023-08-07T11:53:19;8.65;;;1.83;;
38208;SDS011;24016;52.102;11.584;2023-08-07T11:55:55;7.28;;;2.33;;
38208;SDS011;24016;52.102;11.584;2023-08-07T11:58:26;4.60;;;1.55;;
38208;SDS011;24016;52.102;11.584;2023-08-07T12:00:53;4.80;;;1.55;;
38208;SDS011;24016;52.102;11.584;2023-08-07T12:03:27;5.88;;;1.55;;
38208;SDS011;24016;52.102;11.584;2023-08-07T12:05:54;5.53;;;2.30;;
38208;SDS011;24016;52.102;11.584;2023-08-07T12:08:21;8.82;;;2.42;;
38208;SDS011;24016;52.102;11.584;2023-08-07T12:11:06;6.13;;;1.90;;
38208;SDS011;24016;52.102;11.584;2023-08-07T12:13:36;6.78;;;1.95;;
38208;SDS011;24016;52.102;11.584;2023-08-07T12:16:06;5.55;;;1.98;;
38208;SDS011;24016;52.102;11.584;2023-08-07T12:18:33;5.85;;;1.75;;
38208;SDS011;24016;52.102;11.584;2023-08-07T12:21:01;6.15;;;2.20;;
38208;SDS011;24016;52.102;11.584;2023-08-07T12:23:34;4.97;;;1.93;;
38208;SDS011;24016;52.102;11.584;2023-08-07T12:26:01;4.53;;;1.98;;
38208;SDS011;24016;52.102;11.584;2023-08-07T12:28:27;4.28;;;1.83;;
38208;SDS011;24016;52.102;11.584;2023-08-07T12:30:53;4.57;;;1.50;;
38208;SDS011;24016;52.102;11.584;2023-08-07T12:33:18;3.80;;;1.70;;
38208;SDS011;24016;52.102;11.584;2023-08-07T12:35:44;4.32;;;1.52;;
38208;SDS011;24016;52.102;11.584;2023-08-07T12:38:10;2.80;;;1.40;;
38208;SDS011;24016;52.102;11.584;2023-08-07T12:40:38;3.53;;;1.48;;
38208;SDS011;24016;52.102;11.584;2023-08-07T12:43:04;3.85;;;1.20;;
38208;SDS011;24016;52.102;11.584;2023-08-07T12:45:30;4.07;;;1.35;;
38208;SDS011;24016;52.102;11.584;2023-08-07T12:47:56;3.08;;;1.20;;
38208;SDS011;24016;52.102;11.584;2023-08-07T12:50:21;4.18;;;1.40;;
38208;SDS011;24016;52.102;11.584;2023-08-07T12:52:47;3.25;;;1.15;;
38208;SDS011;24016;52.102;11.584;2023-08-07T12:55:13;4.40;;;1.50;;
38208;SDS011;24016;52.102;11.584;2023-08-07T12:57:41;3.83;;;1.23;;
38208;SDS011;24016;52.102;11.584;2023-08-07T13:00:08;2.88;;;1.20;;
38208;SDS011;24016;52.102;11.584;2023-08-07T13:02:38;5.55;;;1.65;;
38208;SDS011;24016;52.102;11.584;2023-08-07T13:05:05;5.10;;;1.63;;
38208;SDS011;24016;52.102;11.584;2023-08-07T13:07:30;6.57;;;2.15;;
38208;SDS011;24016;52.102;11.584;2023-08-07T13:09:56;4.70;;;1.48;;
38208;SDS011;24016;52.102;11.584;2023-08-07T13:12:22;3.88;;;1.80;;
38208;SDS011;24016;52.102;11.584;2023-08-07T13:14:48;5.25;;;1.90;;
38208;SDS011;24016;52.102;11.584;2023-08-07T13:17:13;4.75;;;1.95;;
38208;SDS011;24016;52.102;11.584;2023-08-07T13:19:39;4.78;;;2.17;;
38208;SDS011;24016;52.102;11.584;2023-08-07T13:22:04;6.40;;;1.70;;
38208;SDS011;24016;52.102;11.584;2023-08-07T13:24:30;7.18;;;2.03;;
38208;SDS011;24016;52.102;11.584;2023-08-07T13:26:55;5.72;;;1.70;;
38208;SDS011;24016;52.102;11.584;2023-08-07T13:29:21;6.50;;;2.30;;
38208;SDS011;24016;52.102;11.584;2023-08-07T13:31:47;4.63;;;1.75;;
38208;SDS011;24016;52.102;11.584;2023-08-07T13:34:13;4.93;;;1.60;;
38208;SDS011;24016;52.102;11.584;2023-08-07T13:36:39;3.95;;;1.02;;
38208;SDS011;24016;52.102;11.584;2023-08-07T13:39:05;5.07;;;1.48;;
38208;SDS011;24016;52.102;11.584;2023-08-07T13:41:31;3.95;;;1.35;;
38208;SDS011;24016;52.102;11.584;2023-08-07T13:43:57;2.75;;;1.55;;
38208;SDS011;24016;52.102;11.584;2023-08-07T13:46:23;3.53;;;1.42;;
38208;SDS011;24016;52.102;11.584;2023-08-07T13:48:51;3.92;;;1.30;;
38208;SDS011;24016;52.102;11.584;2023-08-07T13:51:17;5.22;;;1.48;;
38208;SDS011;24016;52.102;11.584;2023-08-07T13:53:42;4.22;;;1.58;;
38208;SDS011;24016;52.102;11.584;2023-08-07T13:56:09;7.28;;;1.42;;
38208;SDS011;24016;52.102;11.584;2023-08-07T13:58:37;8.55;;;1.50;;
38208;SDS011;24016;52.102;11.584;2023-08-07T14:01:07;8.10;;;1.50;;
38208;SDS011;24016;52.102;11.584;2023-08-07T14:03:33;2.85;;;1.50;;
38208;SDS011;24016;52.102;11.584;2023-08-07T14:05:59;4.70;;;1.30;;
38208;SDS011;24016;52.102;11.584;2023-08-07T14:08:25;5.55;;;1.38;;
38208;SDS011;24016;52.102;11.584;2023-08-07T14:10:50;3.13;;;1.33;;
38208;SDS011;24016;52.102;11.584;2023-08-07T14:13:16;2.72;;;1.10;;
38208;SDS011;24016;52.102;11.584;2023-08-07T14:15:42;5.75;;;1.15;;
38208;SDS011;24016;52.102;11.584;2023-08-07T14:18:08;4.00;;;1.55;;
38208;SDS011;24016;52.102;11.584;2023-08-07T14:20:34;6.03;;;1.20;;
38208;SDS011;24016;52.102;11.584;2023-08-07T14:23:00;8.15;;;1.40;;
38208;SDS011;24016;52.102;11.584;2023-08-07T14:25:25;4.05;;;1.23;;
38208;SDS011;24016;52.102;11.584;2023-08-07T14:27:54;4.05;;;1.50;;
38208;SDS011;24016;52.102;11.584;2023-08-07T14:30:20;5.28;;;1.15;;
38208;SDS011;24016;52.102;11.584;2023-08-07T14:32:45;3.88;;;1.33;;
38208;SDS011;24016;52.102;11.584;2023-08-07T14:35:12;2.55;;;1.40;;
38208;SDS011;24016;52.102;11.584;2023-08-07T14:37:38;5.68;;;1.55;;